createdAt,value
2022-09-14T00:00:36.000Z,23.50
2022-09-14T00:03:02.544Z,23.50
2022-09-14T00:05:29.113Z,23.50
2022-09-14T00:07:55.572Z,23.50
2022-09-14T00:10:22.039Z,23.50
2022-09-14T00:12:48.518Z,23.40
2022-09-14T00:15:14.997Z,23.40
2022-09-14T00:17:41.464Z,23.50
2022-09-14T00:20:07.937Z,23.50
2022-09-14T00:22:34.404Z,23.50
2022-09-14T00:25:00.882Z,23.40
2022-09-14T00:27:27.361Z,23.50
2022-09-14T00:29:53.841Z,23.50
2022-09-14T00:32:20.323Z,23.40
2022-09-14T00:34:46.792Z,23.40
2022-09-14T00:37:13.261Z,23.40
2022-09-14T00:39:39.757Z,23.40
2022-09-14T00:42:06.219Z,23.50
2022-09-14T00:44:32.712Z,23.50
2022-09-14T00:46:59.191Z,23.50
2022-09-14T00:49:25.693Z,23.40
2022-09-14T00:51:52.161Z,23.50
2022-09-14T00:54:18.646Z,23.50
2022-09-14T00:56:45.147Z,23.40
2022-09-14T00:59:11.636Z,23.50
2022-09-14T01:01:38.134Z,23.40
2022-09-14T01:04:04.713Z,23.40
2022-09-14T01:06:31.207Z,23.40
2022-09-14T01:08:57.682Z,23.40
2022-09-14T01:11:24.151Z,23.40
2022-09-14T01:13:50.615Z,23.40
2022-09-14T01:16:17.165Z,23.40
2022-09-14T01:18:43.761Z,23.40
2022-09-14T01:21:10.307Z,23.40
2022-09-14T01:23:36.796Z,23.40
2022-09-14T01:26:03.267Z,23.40
2022-09-14T01:28:29.722Z,23.40
2022-09-14T01:30:56.207Z,23.40
2022-09-14T01:33:22.683Z,23.40
2022-09-14T01:35:49.166Z,23.40
2022-09-14T01:38:15.618Z,23.40
2022-09-14T01:40:42.080Z,23.40
2022-09-14T01:43:08.558Z,23.40
2022-09-14T01:45:35.082Z,23.40
2022-09-14T01:48:01.565Z,23.40
2022-09-14T01:50:28.041Z,23.30
2022-09-14T01:52:54.493Z,23.30
2022-09-14T01:55:20.958Z,23.30
2022-09-14T01:57:47.417Z,23.30
2022-09-14T02:00:13.915Z,23.40
2022-09-14T02:02:40.449Z,23.40
2022-09-14T02:05:07.386Z,23.40
2022-09-14T02:07:33.863Z,23.30
2022-09-14T02:10:00.322Z,23.30
2022-09-14T02:12:26.791Z,23.40
2022-09-14T02:14:53.266Z,23.30
2022-09-14T02:17:19.739Z,23.30
2022-09-14T02:19:46.223Z,23.30
2022-09-14T02:22:12.684Z,23.30
2022-09-14T02:24:39.163Z,23.30
2022-09-14T02:27:05.642Z,23.40
2022-09-14T02:29:32.121Z,23.30
2022-09-14T02:31:58.609Z,23.30
2022-09-14T02:34:25.066Z,23.40
2022-09-14T02:36:51.546Z,23.30
2022-09-14T02:39:18.012Z,23.30
2022-09-14T02:41:44.476Z,23.40
2022-09-14T02:44:10.951Z,23.40
2022-09-14T02:46:37.471Z,23.40
2022-09-14T02:49:03.999Z,23.30
2022-09-14T02:51:30.489Z,23.30
2022-09-14T02:53:56.953Z,23.30
2022-09-14T02:56:23.437Z,23.30
2022-09-14T02:58:49.997Z,23.30
2022-09-14T03:01:16.603Z,23.30
2022-09-14T03:03:43.183Z,23.30
2022-09-14T03:06:09.691Z,23.30
2022-09-14T03:08:36.169Z,23.30
2022-09-14T03:11:02.688Z,23.30
2022-09-14T03:13:29.174Z,23.30
2022-09-14T03:15:55.705Z,23.30
2022-09-14T03:18:22.277Z,23.30
2022-09-14T03:20:48.783Z,23.30
2022-09-14T03:23:15.254Z,23.30
2022-09-14T03:25:41.744Z,23.30
2022-09-14T03:28:08.211Z,23.30
2022-09-14T03:30:34.682Z,23.30
2022-09-14T03:33:01.166Z,23.30
2022-09-14T03:35:27.627Z,23.30
2022-09-14T03:37:54.082Z,23.30
2022-09-14T03:40:22.146Z,23.30
2022-09-14T03:42:48.815Z,23.30
2022-09-14T03:45:15.298Z,23.30
2022-09-14T03:47:41.801Z,23.30
2022-09-14T03:50:08.284Z,23.30
2022-09-14T03:52:34.776Z,23.30
2022-09-14T03:55:01.246Z,23.30
2022-09-14T03:57:27.727Z,23.30
2022-09-14T03:59:54.211Z,23.30
2022-09-14T04:02:20.697Z,23.30
2022-09-14T04:04:47.165Z,23.30
2022-09-14T04:07:13.649Z,23.30
2022-09-14T04:09:40.126Z,23.30
2022-09-14T04:12:06.630Z,23.20
2022-09-14T04:14:33.103Z,23.20
2022-09-14T04:16:59.596Z,23.30
2022-09-14T04:19:26.066Z,23.30
2022-09-14T04:21:52.527Z,23.20
2022-09-14T04:24:19.356Z,23.30
2022-09-14T04:26:46.040Z,23.30
2022-09-14T04:29:12.496Z,23.30
2022-09-14T04:31:39.044Z,23.20
2022-09-14T04:34:05.584Z,23.20
2022-09-14T04:36:32.075Z,23.20
2022-09-14T04:38:58.548Z,23.20
2022-09-14T04:41:25.012Z,23.20
2022-09-14T04:43:51.497Z,23.30
2022-09-14T04:46:18.007Z,23.20
2022-09-14T04:48:44.528Z,23.20
2022-09-14T04:51:11.008Z,23.20
2022-09-14T04:53:37.482Z,23.20
2022-09-14T04:56:03.947Z,23.20
2022-09-14T04:58:30.413Z,23.20
2022-09-14T05:00:56.873Z,23.20
2022-09-14T05:03:23.350Z,23.20
2022-09-14T05:05:49.811Z,23.20
2022-09-14T05:08:16.276Z,23.20
2022-09-14T05:10:42.742Z,23.20
2022-09-14T05:13:09.230Z,23.20
2022-09-14T05:15:35.718Z,23.20
2022-09-14T05:18:02.211Z,23.20
2022-09-14T05:20:28.692Z,23.20
2022-09-14T05:22:55.173Z,23.20
2022-09-14T05:25:21.647Z,23.20
2022-09-14T05:27:48.130Z,23.20
2022-09-14T05:30:14.602Z,23.20
2022-09-14T05:32:41.082Z,23.20
2022-09-14T05:35:07.559Z,23.20
2022-09-14T05:37:34.039Z,23.20
2022-09-14T05:40:00.572Z,23.20
2022-09-14T05:42:27.086Z,23.20
2022-09-14T05:44:53.547Z,23.20
2022-09-14T05:47:20.021Z,23.20
2022-09-14T05:49:46.481Z,23.20
2022-09-14T05:52:12.962Z,23.20
2022-09-14T05:54:39.440Z,23.20
2022-09-14T05:57:05.907Z,23.20
2022-09-14T05:59:32.381Z,23.20
2022-09-14T06:01:58.884Z,23.10
2022-09-14T06:04:25.392Z,23.20
2022-09-14T06:07:14.555Z,23.20
2022-09-14T06:09:38.339Z,23.10
2022-09-14T06:12:04.830Z,23.20
2022-09-14T06:14:31.309Z,23.10
2022-09-14T06:16:57.807Z,23.10
2022-09-14T06:19:24.262Z,23.10
2022-09-14T06:21:50.751Z,23.10
2022-09-14T06:24:17.207Z,23.10
2022-09-14T06:26:43.699Z,23.10
2022-09-14T06:29:10.206Z,23.10
2022-09-14T06:31:36.682Z,23.10
2022-09-14T06:34:03.166Z,23.10
2022-09-14T06:36:29.641Z,23.10
2022-09-14T06:38:56.132Z,23.10
2022-09-14T06:41:22.596Z,23.10
2022-09-14T06:43:49.094Z,23.10
2022-09-14T06:46:15.577Z,23.10
2022-09-14T06:48:42.071Z,23.10
2022-09-14T06:51:08.540Z,23.10
2022-09-14T06:53:35.035Z,23.10
2022-09-14T06:56:01.526Z,23.10
2022-09-14T06:58:28.004Z,23.10
2022-09-14T07:00:54.460Z,23.10
2022-09-14T07:03:20.956Z,23.10
2022-09-14T07:05:47.440Z,23.10
2022-09-14T07:08:13.932Z,23.10
2022-09-14T07:10:40.415Z,23.10
2022-09-14T07:13:06.894Z,23.10
2022-09-14T07:15:33.406Z,23.10
2022-09-14T07:17:59.913Z,23.10
2022-09-14T07:20:26.404Z,23.10
2022-09-14T07:22:52.880Z,23.10
2022-09-14T07:25:19.349Z,23.10
2022-09-14T07:27:45.831Z,23.10
2022-09-14T07:30:12.294Z,23.10
2022-09-14T07:32:38.760Z,23.10
2022-09-14T07:35:05.255Z,23.10
2022-09-14T07:37:31.728Z,23.10
2022-09-14T07:39:58.245Z,23.10
2022-09-14T07:42:24.765Z,23.10
2022-09-14T07:44:51.228Z,23.00
2022-09-14T07:47:17.718Z,23.00
2022-09-14T07:49:44.194Z,23.00
2022-09-14T07:52:10.667Z,23.00
2022-09-14T07:54:37.151Z,23.10
2022-09-14T07:57:03.651Z,23.00
2022-09-14T07:59:37.682Z,23.00
2022-09-14T08:02:04.267Z,23.10
2022-09-14T08:04:30.759Z,23.10
2022-09-14T08:06:57.244Z,23.10
2022-09-14T08:09:23.718Z,23.10
2022-09-14T08:11:50.215Z,23.10
2022-09-14T08:14:16.688Z,23.00
2022-09-14T08:16:43.274Z,23.10
2022-09-14T08:19:09.789Z,23.00
2022-09-14T08:21:36.265Z,23.00
2022-09-14T08:24:02.724Z,23.00
2022-09-14T08:26:29.222Z,23.00
2022-09-14T08:28:55.685Z,23.00
2022-09-14T08:31:22.214Z,23.00
2022-09-14T08:33:48.733Z,23.00
2022-09-14T08:36:15.209Z,23.00
2022-09-14T08:38:41.686Z,23.00
2022-09-14T08:41:08.149Z,23.00
2022-09-14T08:43:34.614Z,23.00
2022-09-14T08:46:01.270Z,23.00
2022-09-14T08:48:27.827Z,23.00
2022-09-14T08:50:54.314Z,23.00
2022-09-14T08:53:20.795Z,23.00
2022-09-14T08:55:47.259Z,23.00
2022-09-14T08:58:13.743Z,23.00
2022-09-14T09:00:40.249Z,23.00
2022-09-14T09:03:06.783Z,23.00
2022-09-14T09:05:33.267Z,23.00
2022-09-14T09:07:59.730Z,23.00
2022-09-14T09:10:26.195Z,23.00
2022-09-14T09:12:52.662Z,23.00
2022-09-14T09:15:19.135Z,23.00
2022-09-14T09:17:45.615Z,23.00
2022-09-14T09:20:12.088Z,23.00
2022-09-14T09:22:38.567Z,23.00
2022-09-14T09:25:05.036Z,23.00
2022-09-14T09:27:31.512Z,23.00
2022-09-14T09:29:57.975Z,23.00
2022-09-14T09:32:24.431Z,23.00
2022-09-14T09:34:50.913Z,23.00
2022-09-14T09:37:17.421Z,23.00
2022-09-14T09:39:43.962Z,23.00
2022-09-14T09:42:10.519Z,22.90
2022-09-14T09:44:36.997Z,23.00
2022-09-14T09:47:03.559Z,23.00
2022-09-14T09:49:30.080Z,23.00
2022-09-14T09:51:56.577Z,23.00
2022-09-14T09:54:23.039Z,23.00
2022-09-14T09:56:49.520Z,23.00
2022-09-14T09:59:15.991Z,23.00
2022-09-14T10:01:42.596Z,23.00
2022-09-14T10:04:09.203Z,23.00
2022-09-14T10:06:35.688Z,23.00
2022-09-14T10:09:02.282Z,23.00
2022-09-14T10:11:28.743Z,22.90
2022-09-14T10:13:55.233Z,23.00
2022-09-14T10:16:21.740Z,23.00
2022-09-14T10:18:49.153Z,23.00
2022-09-14T10:21:15.858Z,23.00
2022-09-14T10:23:42.349Z,23.00
2022-09-14T10:26:08.832Z,23.00
2022-09-14T10:28:35.320Z,23.00
2022-09-14T10:31:01.916Z,22.90
2022-09-14T10:33:28.457Z,22.90
2022-09-14T10:35:54.933Z,22.90
2022-09-14T10:38:21.410Z,22.90
2022-09-14T10:40:48.995Z,22.90
2022-09-14T10:43:15.472Z,22.90
2022-09-14T10:45:41.941Z,22.90
2022-09-14T10:48:08.433Z,22.90
2022-09-14T10:50:35.031Z,22.90
2022-09-14T10:53:01.500Z,22.90
2022-09-14T10:55:27.973Z,23.00
2022-09-14T10:57:54.451Z,22.90
2022-09-14T11:00:20.932Z,22.90
2022-09-14T11:02:47.458Z,22.90
2022-09-14T11:05:13.955Z,22.80
2022-09-14T11:07:40.439Z,22.90
2022-09-14T11:10:06.914Z,22.90
2022-09-14T11:12:33.402Z,22.90
2022-09-14T11:14:59.869Z,22.90
2022-09-14T11:17:26.352Z,22.90
2022-09-14T11:19:52.846Z,22.90
2022-09-14T11:22:19.348Z,22.90
2022-09-14T11:24:45.843Z,22.90
2022-09-14T11:27:12.322Z,22.90
2022-09-14T11:29:38.808Z,22.90
2022-09-14T11:32:20.514Z,22.90
2022-09-14T11:34:48.168Z,22.90
2022-09-14T11:37:14.838Z,22.90
2022-09-14T11:39:41.338Z,22.90
2022-09-14T11:42:07.819Z,22.90
2022-09-14T11:44:34.293Z,22.80
2022-09-14T11:47:01.116Z,22.90
2022-09-14T11:49:27.639Z,22.90
2022-09-14T11:51:54.099Z,22.90
2022-09-14T11:54:20.574Z,22.90
2022-09-14T11:56:47.031Z,22.90
2022-09-14T11:59:13.530Z,22.90
2022-09-14T12:01:40.016Z,22.90
2022-09-14T12:04:06.518Z,22.90
2022-09-14T12:06:33.023Z,22.90
2022-09-14T12:08:59.515Z,22.90
2022-09-14T12:11:25.971Z,22.90
2022-09-14T12:13:52.461Z,22.90
2022-09-14T12:16:18.992Z,22.90
2022-09-14T12:18:45.544Z,22.90
2022-09-14T12:21:12.019Z,22.90
2022-09-14T12:23:38.495Z,22.90
2022-09-14T12:26:04.965Z,22.80
2022-09-14T12:28:31.460Z,22.90
2022-09-14T12:30:58.034Z,22.90
2022-09-14T12:33:24.541Z,22.90
2022-09-14T12:35:50.999Z,22.90
2022-09-14T12:38:17.469Z,22.90
2022-09-14T12:40:43.951Z,22.90
2022-09-14T12:43:10.453Z,22.90
2022-09-14T12:45:36.907Z,22.90
2022-09-14T12:48:03.406Z,22.90
2022-09-14T12:50:29.890Z,22.90
2022-09-14T12:52:56.342Z,22.90
2022-09-14T12:55:22.815Z,22.90
2022-09-14T12:57:49.285Z,22.90
2022-09-14T13:00:15.762Z,22.90
2022-09-14T13:02:42.324Z,22.90
2022-09-14T13:05:08.898Z,22.90
2022-09-14T13:07:35.387Z,22.80
2022-09-14T13:10:01.866Z,22.90
2022-09-14T13:12:28.352Z,22.90
2022-09-14T13:14:54.829Z,22.90
2022-09-14T13:17:21.312Z,22.90
2022-09-14T13:19:47.798Z,22.90
2022-09-14T13:22:14.283Z,22.80
2022-09-14T13:24:40.775Z,22.80
2022-09-14T13:27:07.235Z,22.90
2022-09-14T13:29:33.700Z,22.90
2022-09-14T13:32:03.565Z,22.90
2022-09-14T13:34:30.677Z,22.90
2022-09-14T13:36:57.172Z,22.80
2022-09-14T13:39:23.681Z,22.90
2022-09-14T13:41:50.154Z,22.90
2022-09-14T13:44:21.614Z,22.90
2022-09-14T13:46:48.092Z,22.90
2022-09-14T13:49:14.562Z,22.90
2022-09-14T13:51:41.031Z,22.90
2022-09-14T13:54:07.515Z,22.90
2022-09-14T13:56:33.983Z,22.90
2022-09-14T13:59:00.450Z,22.90
2022-09-14T14:01:26.998Z,22.90
2022-09-14T14:03:53.538Z,22.90
2022-09-14T14:06:20.016Z,22.90
2022-09-14T14:08:46.507Z,22.80
2022-09-14T14:11:12.959Z,22.80
2022-09-14T14:13:39.436Z,22.80
2022-09-14T14:16:05.918Z,22.90
2022-09-14T14:18:32.403Z,22.90
2022-09-14T14:20:58.891Z,22.90
2022-09-14T14:23:25.355Z,22.90
2022-09-14T14:25:51.844Z,22.90
2022-09-14T14:28:18.318Z,22.90
2022-09-14T14:30:44.784Z,22.80
2022-09-14T14:33:11.260Z,22.90
2022-09-14T14:35:37.743Z,22.80
2022-09-14T14:38:04.212Z,22.90
2022-09-14T14:40:30.768Z,22.90
2022-09-14T14:42:57.267Z,22.90
2022-09-14T14:45:23.752Z,22.80
2022-09-14T14:47:50.226Z,22.90
2022-09-14T14:50:16.738Z,22.90
2022-09-14T14:52:43.224Z,22.90
2022-09-14T14:55:09.713Z,22.90
2022-09-14T14:57:36.199Z,22.80
2022-09-14T15:00:02.673Z,22.90
2022-09-14T15:02:29.140Z,22.90
2022-09-14T15:04:55.618Z,22.90
2022-09-14T15:07:22.096Z,22.90
2022-09-14T15:09:48.580Z,22.80
2022-09-14T15:12:15.088Z,22.90
2022-09-14T15:14:41.560Z,22.90
2022-09-14T15:17:08.018Z,22.80
2022-09-14T15:19:34.483Z,22.90
2022-09-14T15:22:01.788Z,22.90
2022-09-14T15:24:28.466Z,22.90
2022-09-14T15:26:54.948Z,22.90
2022-09-14T15:29:21.414Z,22.90
2022-09-14T15:31:48.010Z,22.90
2022-09-14T15:34:14.595Z,22.90
2022-09-14T15:36:41.083Z,22.90
2022-09-14T15:39:07.553Z,22.80
2022-09-14T15:41:34.038Z,22.90
2022-09-14T15:44:00.516Z,22.90
2022-09-14T15:46:26.998Z,22.90
2022-09-14T15:48:53.466Z,22.90
2022-09-14T15:51:19.930Z,22.90
2022-09-14T15:53:46.397Z,22.80
2022-09-14T15:56:12.869Z,22.90
2022-09-14T15:58:39.348Z,22.80
2022-09-14T16:01:05.903Z,22.90
2022-09-14T16:03:32.392Z,22.90
2022-09-14T16:05:58.895Z,22.90
2022-09-14T16:08:25.380Z,22.80
2022-09-14T16:10:51.871Z,22.90
2022-09-14T16:13:18.349Z,22.80
2022-09-14T16:15:44.829Z,22.80
2022-09-14T16:18:11.300Z,22.80
2022-09-14T16:20:37.804Z,22.80
2022-09-14T16:23:04.268Z,22.80
2022-09-14T16:25:30.751Z,22.80
2022-09-14T16:27:57.220Z,22.80
2022-09-14T16:30:23.727Z,22.80
2022-09-14T16:32:50.202Z,22.80
2022-09-14T16:35:16.710Z,22.80
2022-09-14T16:37:43.187Z,22.80
2022-09-14T16:40:09.798Z,22.80
2022-09-14T16:42:36.286Z,22.90
2022-09-14T16:45:02.791Z,22.90
2022-09-14T16:47:29.278Z,22.90
2022-09-14T16:49:55.761Z,22.80
2022-09-14T16:52:22.247Z,22.90
2022-09-14T16:54:50.305Z,22.80
2022-09-14T16:57:19.467Z,22.80
2022-09-14T16:59:45.933Z,22.80
2022-09-14T17:02:12.446Z,22.80
2022-09-14T17:04:38.996Z,22.80
2022-09-14T17:07:05.475Z,22.80
2022-09-14T17:09:31.955Z,22.80
2022-09-14T17:11:58.439Z,22.80
2022-09-14T17:14:24.948Z,22.80
2022-09-14T17:16:51.504Z,22.80
2022-09-14T17:19:18.073Z,22.80
2022-09-14T17:21:44.564Z,22.80
2022-09-14T17:24:11.041Z,22.80
2022-09-14T17:26:37.518Z,22.80
2022-09-14T17:29:03.982Z,22.80
2022-09-14T17:31:30.544Z,22.80
2022-09-14T17:33:57.078Z,22.80
2022-09-14T17:36:23.545Z,22.80
2022-09-14T17:38:50.032Z,22.80
2022-09-14T17:41:16.509Z,22.80
2022-09-14T17:43:42.973Z,22.70
2022-09-14T17:46:09.522Z,22.80
2022-09-14T17:48:36.097Z,22.80
2022-09-14T17:51:02.589Z,22.80
2022-09-14T17:53:29.066Z,22.70
2022-09-14T17:55:55.585Z,22.70
2022-09-14T17:58:22.085Z,22.70
2022-09-14T18:00:48.628Z,22.70
2022-09-14T18:03:15.162Z,22.70
2022-09-14T18:05:41.698Z,22.70
2022-09-14T18:08:08.169Z,22.70
2022-09-14T18:10:34.662Z,22.80
2022-09-14T18:13:01.153Z,22.80
2022-09-14T18:15:27.623Z,22.80
2022-09-14T18:17:54.109Z,22.80
2022-09-14T18:20:20.593Z,22.80
2022-09-14T18:22:47.080Z,22.80
2022-09-14T18:25:13.565Z,22.70
2022-09-14T18:27:40.037Z,22.70
2022-09-14T18:30:06.512Z,22.70
2022-09-14T18:32:33.002Z,22.70
2022-09-14T18:34:59.488Z,22.70
2022-09-14T18:37:25.974Z,22.70
2022-09-14T18:39:52.525Z,22.70
2022-09-14T18:42:19.067Z,22.70
2022-09-14T18:44:45.548Z,22.70
2022-09-14T18:47:12.025Z,22.70
2022-09-14T18:49:38.512Z,22.70
2022-09-14T18:52:05.007Z,22.70
2022-09-14T18:54:31.476Z,22.70
2022-09-14T18:56:57.951Z,22.70
2022-09-14T18:59:24.414Z,22.70
2022-09-14T19:01:50.933Z,22.70
2022-09-14T19:04:17.442Z,22.70
2022-09-14T19:06:44.601Z,22.70
2022-09-14T19:09:11.270Z,22.70
2022-09-14T19:11:37.744Z,22.70
2022-09-14T19:14:04.218Z,22.70
2022-09-14T19:16:30.807Z,22.70
2022-09-14T19:18:57.359Z,22.70
2022-09-14T19:21:24.184Z,22.70
2022-09-14T19:23:50.815Z,22.70
2022-09-14T19:26:17.378Z,22.70
2022-09-14T19:28:43.834Z,22.70
2022-09-14T19:31:10.370Z,22.70
2022-09-14T19:33:36.876Z,22.70
2022-09-14T19:36:03.361Z,22.70
2022-09-14T19:38:29.836Z,22.70
2022-09-14T19:40:56.320Z,22.70
2022-09-14T19:43:22.809Z,22.60
2022-09-14T19:45:49.295Z,22.60
2022-09-14T19:48:15.783Z,22.60
2022-09-14T19:50:42.274Z,22.60
2022-09-14T19:53:08.761Z,22.60
2022-09-14T19:55:35.235Z,22.60
2022-09-14T19:58:01.706Z,22.60
2022-09-14T20:00:28.164Z,22.60
2022-09-14T20:02:54.726Z,22.70
2022-09-14T20:05:21.240Z,22.60
2022-09-14T20:07:47.745Z,22.60
2022-09-14T20:10:14.207Z,22.60
2022-09-14T20:12:40.672Z,22.60
2022-09-14T20:15:07.127Z,22.60
2022-09-14T20:17:33.586Z,22.60
2022-09-14T20:20:00.046Z,22.50
2022-09-14T20:22:26.511Z,22.60
2022-09-14T20:24:52.990Z,22.50
2022-09-14T20:27:19.484Z,22.60
2022-09-14T20:29:45.970Z,22.60
2022-09-14T20:32:12.458Z,22.60
2022-09-14T20:34:38.939Z,22.60
2022-09-14T20:37:05.409Z,22.60
2022-09-14T20:39:31.877Z,22.50
2022-09-14T20:41:58.348Z,22.60
2022-09-14T20:44:24.820Z,22.60
2022-09-14T20:46:51.319Z,22.50
2022-09-14T20:49:17.779Z,22.60
2022-09-14T20:51:44.278Z,22.60
2022-09-14T20:54:10.734Z,22.50
2022-09-14T20:56:37.206Z,22.50
2022-09-14T20:59:03.663Z,22.50
2022-09-14T21:01:30.226Z,22.50
2022-09-14T21:03:56.741Z,22.50
2022-09-14T21:06:23.210Z,22.50
2022-09-14T21:08:49.695Z,22.50
2022-09-14T21:11:16.179Z,22.50
2022-09-14T21:13:42.680Z,22.50
2022-09-14T21:16:09.222Z,22.60
2022-09-14T21:18:35.722Z,22.50
2022-09-14T21:21:03.022Z,22.50
2022-09-14T21:23:29.560Z,22.50
2022-09-14T21:25:56.053Z,22.50
2022-09-14T21:28:22.520Z,22.50
2022-09-14T21:30:49.055Z,22.50
2022-09-14T21:33:15.564Z,22.50
2022-09-14T21:35:42.035Z,22.50
2022-09-14T21:38:08.502Z,22.60
2022-09-14T21:40:34.978Z,22.60
2022-09-14T21:43:01.452Z,22.60
2022-09-14T21:45:27.915Z,22.60
2022-09-14T21:47:54.385Z,22.50
2022-09-14T21:50:20.856Z,22.50
2022-09-14T21:52:47.326Z,22.50
2022-09-14T21:55:13.783Z,22.50
2022-09-14T21:57:40.257Z,22.50
2022-09-14T22:00:06.725Z,22.50
2022-09-14T22:02:33.252Z,22.50
2022-09-14T22:04:59.804Z,22.50
2022-09-14T22:07:26.285Z,22.50
2022-09-14T22:09:52.765Z,22.50
2022-09-14T22:12:19.227Z,22.50
2022-09-14T22:14:45.710Z,22.40
2022-09-14T22:17:12.189Z,22.50
2022-09-14T22:19:38.674Z,22.50
2022-09-14T22:22:05.168Z,22.40
2022-09-14T22:24:37.148Z,22.40
2022-09-14T22:27:04.485Z,22.40
2022-09-14T22:29:30.976Z,22.50
2022-09-14T22:31:57.465Z,22.50
2022-09-14T22:34:23.927Z,22.50
2022-09-14T22:36:50.410Z,22.50
2022-09-14T22:39:16.888Z,22.50
2022-09-14T22:41:43.395Z,22.50
2022-09-14T22:44:09.863Z,22.50
2022-09-14T22:46:36.400Z,22.50
2022-09-14T22:49:02.897Z,22.50
2022-09-14T22:51:29.374Z,22.50
2022-09-14T22:53:55.855Z,22.50
2022-09-14T22:56:22.319Z,22.50
2022-09-14T22:58:48.799Z,22.50
2022-09-14T23:01:15.281Z,22.50
2022-09-14T23:03:41.803Z,22.50
2022-09-14T23:06:08.280Z,22.50
2022-09-14T23:08:34.775Z,22.50
2022-09-14T23:11:01.266Z,22.50
2022-09-14T23:13:27.750Z,22.50
2022-09-14T23:15:54.207Z,22.50
2022-09-14T23:18:20.680Z,22.40
2022-09-14T23:20:47.159Z,22.50
2022-09-14T23:23:13.641Z,22.50
2022-09-14T23:25:40.105Z,22.50
2022-09-14T23:28:06.584Z,22.40
2022-09-14T23:30:33.099Z,22.40
2022-09-14T23:32:59.604Z,22.40
2022-09-14T23:35:26.072Z,22.50
2022-09-14T23:37:52.530Z,22.40
2022-09-14T23:40:19.024Z,22.40
2022-09-14T23:42:45.541Z,22.40
2022-09-14T23:45:12.016Z,22.40
2022-09-14T23:47:38.474Z,22.40
2022-09-14T23:50:04.991Z,22.40
2022-09-14T23:52:31.471Z,22.40
2022-09-14T23:54:57.953Z,22.40
2022-09-14T23:57:24.424Z,22.40
2022-09-14T23:59:50.899Z,22.40
